sensor_id;sensor_type;location;lat;lon;timestamp;temperature;humidity
21801;DHT22;11062;51.164;16.924;2023-06-26T00:43:43;35.70;43.00
21801;DHT22;11062;51.164;16.924;2023-06-26T00:46:10;35.60;43.00
21801;DHT22;11062;51.164;16.924;2023-06-26T01:50:14;34.90;43.70
21801;DHT22;11062;51.164;16.924;2023-06-26T01:52:49;35.00;43.70
21801;DHT22;11062;51.164;16.924;2023-06-26T01:55:49;35.00;43.60
21801;DHT22;11062;51.164;16.924;2023-06-26T01:58:25;34.80;43.90
21801;DHT22;11062;51.164;16.924;2023-06-26T02:00:54;34.50;44.50
21801;DHT22;11062;51.164;16.924;2023-06-26T02:03:20;34.40;44.50
21801;DHT22;11062;51.164;16.924;2023-06-26T02:05:46;34.10;44.60
21801;DHT22;11062;51.164;16.924;2023-06-26T02:08:15;33.80;44.90
21801;DHT22;11062;51.164;16.924;2023-06-26T02:10:41;33.70;45.00
21801;DHT22;11062;51.164;16.924;2023-06-26T02:13:10;33.60;45.30
21801;DHT22;11062;51.164;16.924;2023-06-26T02:15:35;33.50;45.60
21801;DHT22;11062;51.164;16.924;2023-06-26T02:18:04;33.40;45.70
21801;DHT22;11062;51.164;16.924;2023-06-26T02:20:30;33.50;45.80
21801;DHT22;11062;51.164;16.924;2023-06-26T02:22:59;33.70;45.20
21801;DHT22;11062;51.164;16.924;2023-06-26T02:25:25;33.90;45.20
21801;DHT22;11062;51.164;16.924;2023-06-26T02:27:59;34.00;45.00
21801;DHT22;11062;51.164;16.924;2023-06-26T02:30:27;34.20;44.90
21801;DHT22;11062;51.164;16.924;2023-06-26T02:32:54;34.10;44.60
21801;DHT22;11062;51.164;16.924;2023-06-26T02:35:20;34.10;44.60
21801;DHT22;11062;51.164;16.924;2023-06-26T02:37:49;34.10;44.70
21801;DHT22;11062;51.164;16.924;2023-06-26T02:40:15;34.00;44.70
21801;DHT22;11062;51.164;16.924;2023-06-26T02:42:41;34.10;44.90
21801;DHT22;11062;51.164;16.924;2023-06-26T02:45:07;34.30;44.70
21801;DHT22;11062;51.164;16.924;2023-06-26T02:48:11;34.30;44.50
21801;DHT22;11062;51.164;16.924;2023-06-26T02:50:37;34.30;44.50
21801;DHT22;11062;51.164;16.924;2023-06-26T02:53:03;34.30;44.60
21801;DHT22;11062;51.164;16.924;2023-06-26T02:55:33;34.20;44.50
21801;DHT22;11062;51.164;16.924;2023-06-26T02:57:59;34.10;44.50
21801;DHT22;11062;51.164;16.924;2023-06-26T03:00:28;33.90;44.70
21801;DHT22;11062;51.164;16.924;2023-06-26T03:02:55;33.80;44.70
21801;DHT22;11062;51.164;16.924;2023-06-26T03:05:21;33.80;44.80
21801;DHT22;11062;51.164;16.924;2023-06-26T03:07:50;33.90;44.80
21801;DHT22;11062;51.164;16.924;2023-06-26T03:10:16;33.80;44.80
21801;DHT22;11062;51.164;16.924;2023-06-26T03:12:42;33.70;45.20
21801;DHT22;11062;51.164;16.924;2023-06-26T03:15:11;33.70;45.30
21801;DHT22;11062;51.164;16.924;2023-06-26T03:17:37;33.80;45.20
21801;DHT22;11062;51.164;16.924;2023-06-26T03:20:03;33.70;45.20
21801;DHT22;11062;51.164;16.924;2023-06-26T03:22:33;33.60;45.60
21801;DHT22;11062;51.164;16.924;2023-06-26T03:25:02;33.50;45.80
21801;DHT22;11062;51.164;16.924;2023-06-26T03:27:28;33.30;46.20
21801;DHT22;11062;51.164;16.924;2023-06-26T03:29:57;33.30;46.50
21801;DHT22;11062;51.164;16.924;2023-06-26T03:32:26;33.40;46.30
21801;DHT22;11062;51.164;16.924;2023-06-26T03:34:58;33.60;46.40
21801;DHT22;11062;51.164;16.924;2023-06-26T03:37:28;33.80;46.20
